Terminal Aerodrome Forecast
Issued by NWS

Home | Current Version | Previous Version | Text Only | Print | Product List | Glossary On
Versions: 1 2 3 4 5 6 7 8 9 10 11 12 13 14 15 16
000
FTUS45 KLKN 240500
TAFELY
TAF
KELY 240520Z 2406/2506 17007KT P6SM SCT200
     FM241800 23010G20KT P6SM OVC080
     FM250300 19010KT P6SM VCSH OVC070=

USA.gov is the U.S. government's official web portal to all federal, state and local government web resources and services.